sensor_id;sensor_type;location;lat;lon;timestamp;P1;durP1;ratioP1;P2;durP2;ratioP2
52590;SDS011;38483;42.620;25.394;2023-05-10T00:02:08;10.13;;;5.17;;
52590;SDS011;38483;42.620;25.394;2023-05-10T00:04:35;9.27;;;5.37;;
52590;SDS011;38483;42.620;25.394;2023-05-10T00:07:02;8.50;;;5.33;;
52590;SDS011;38483;42.620;25.394;2023-05-10T00:09:29;7.40;;;5.33;;
52590;SDS011;38483;42.620;25.394;2023-05-10T00:11:56;8.47;;;5.57;;
52590;SDS011;38483;42.620;25.394;2023-05-10T00:14:25;8.93;;;5.33;;
52590;SDS011;38483;42.620;25.394;2023-05-10T00:16:51;7.13;;;5.40;;
52590;SDS011;38483;42.620;25.394;2023-05-10T00:19:19;7.90;;;5.10;;
52590;SDS011;38483;42.620;25.394;2023-05-10T00:21:46;7.73;;;4.97;;
52590;SDS011;38483;42.620;25.394;2023-05-10T00:24:13;5.87;;;4.77;;
52590;SDS011;38483;42.620;25.394;2023-05-10T00:26:40;7.43;;;4.63;;
52590;SDS011;38483;42.620;25.394;2023-05-10T00:29:08;8.83;;;4.73;;
52590;SDS011;38483;42.620;25.394;2023-05-10T00:31:35;7.23;;;4.97;;
52590;SDS011;38483;42.620;25.394;2023-05-10T00:34:02;6.97;;;5.10;;
52590;SDS011;38483;42.620;25.394;2023-05-10T00:36:30;7.43;;;5.13;;
52590;SDS011;38483;42.620;25.394;2023-05-10T00:38:57;8.60;;;5.20;;
52590;SDS011;38483;42.620;25.394;2023-05-10T00:41:25;8.03;;;4.53;;
52590;SDS011;38483;42.620;25.394;2023-05-10T00:43:53;6.87;;;4.30;;
52590;SDS011;38483;42.620;25.394;2023-05-10T00:46:20;8.43;;;4.63;;
52590;SDS011;38483;42.620;25.394;2023-05-10T00:48:48;7.73;;;4.50;;
52590;SDS011;38483;42.620;25.394;2023-05-10T00:51:15;7.33;;;4.80;;
52590;SDS011;38483;42.620;25.394;2023-05-10T00:53:44;6.90;;;4.77;;
52590;SDS011;38483;42.620;25.394;2023-05-10T00:56:12;9.63;;;4.50;;
52590;SDS011;38483;42.620;25.394;2023-05-10T00:58:39;5.73;;;4.50;;
52590;SDS011;38483;42.620;25.394;2023-05-10T01:01:07;6.93;;;5.17;;
52590;SDS011;38483;42.620;25.394;2023-05-10T01:03:35;7.10;;;4.47;;
52590;SDS011;38483;42.620;25.394;2023-05-10T01:06:03;8.77;;;4.50;;
52590;SDS011;38483;42.620;25.394;2023-05-10T01:08:30;6.63;;;4.97;;
52590;SDS011;38483;42.620;25.394;2023-05-10T01:10:57;8.37;;;4.50;;
52590;SDS011;38483;42.620;25.394;2023-05-10T01:13:33;9.10;;;5.30;;
52590;SDS011;38483;42.620;25.394;2023-05-10T01:16:01;8.60;;;4.40;;
52590;SDS011;38483;42.620;25.394;2023-05-10T01:18:33;7.10;;;4.80;;
52590;SDS011;38483;42.620;25.394;2023-05-10T01:33:11;7.83;;;4.23;;
52590;SDS011;38483;42.620;25.394;2023-05-10T01:35:46;7.27;;;4.00;;
52590;SDS011;38483;42.620;25.394;2023-05-10T01:46:17;6.23;;;4.50;;
52590;SDS011;38483;42.620;25.394;2023-05-10T01:48:54;5.87;;;4.60;;
52590;SDS011;38483;42.620;25.394;2023-05-10T01:51:27;5.00;;;4.50;;
52590;SDS011;38483;42.620;25.394;2023-05-10T01:53:59;6.43;;;4.17;;
52590;SDS011;38483;42.620;25.394;2023-05-10T01:56:29;6.33;;;4.33;;
52590;SDS011;38483;42.620;25.394;2023-05-10T01:58:58;8.60;;;4.20;;
52590;SDS011;38483;42.620;25.394;2023-05-10T02:01:29;7.10;;;4.13;;
52590;SDS011;38483;42.620;25.394;2023-05-10T02:03:57;9.43;;;4.37;;
52590;SDS011;38483;42.620;25.394;2023-05-10T02:06:25;7.20;;;4.73;;
52590;SDS011;38483;42.620;25.394;2023-05-10T02:08:53;6.63;;;4.60;;
52590;SDS011;38483;42.620;25.394;2023-05-10T02:11:23;7.13;;;4.57;;
52590;SDS011;38483;42.620;25.394;2023-05-10T02:13:51;8.47;;;4.30;;
52590;SDS011;38483;42.620;25.394;2023-05-10T02:16:28;8.30;;;4.80;;
52590;SDS011;38483;42.620;25.394;2023-05-10T02:18:59;7.27;;;4.60;;
52590;SDS011;38483;42.620;25.394;2023-05-10T02:21:28;8.13;;;4.57;;
52590;SDS011;38483;42.620;25.394;2023-05-10T02:23:57;6.07;;;4.50;;
52590;SDS011;38483;42.620;25.394;2023-05-10T02:26:27;7.63;;;4.47;;
52590;SDS011;38483;42.620;25.394;2023-05-10T02:28:55;8.97;;;4.20;;
52590;SDS011;38483;42.620;25.394;2023-05-10T02:31:24;7.43;;;3.90;;
52590;SDS011;38483;42.620;25.394;2023-05-10T02:33:53;6.33;;;4.20;;
52590;SDS011;38483;42.620;25.394;2023-05-10T02:36:21;7.07;;;4.70;;
52590;SDS011;38483;42.620;25.394;2023-05-10T02:38:49;6.47;;;4.07;;
52590;SDS011;38483;42.620;25.394;2023-05-10T02:41:20;8.53;;;4.60;;
52590;SDS011;38483;42.620;25.394;2023-05-10T02:43:52;7.40;;;4.67;;
52590;SDS011;38483;42.620;25.394;2023-05-10T02:46:24;7.03;;;4.77;;
52590;SDS011;38483;42.620;25.394;2023-05-10T02:48:51;5.80;;;4.60;;
52590;SDS011;38483;42.620;25.394;2023-05-10T02:51:18;8.13;;;4.97;;
52590;SDS011;38483;42.620;25.394;2023-05-10T02:53:49;11.20;;;5.23;;
52590;SDS011;38483;42.620;25.394;2023-05-10T02:56:22;6.93;;;4.80;;
52590;SDS011;38483;42.620;25.394;2023-05-10T02:58:52;7.70;;;5.17;;
52590;SDS011;38483;42.620;25.394;2023-05-10T03:01:19;6.43;;;4.87;;
52590;SDS011;38483;42.620;25.394;2023-05-10T03:03:46;11.77;;;5.20;;
52590;SDS011;38483;42.620;25.394;2023-05-10T03:06:13;6.70;;;4.67;;
52590;SDS011;38483;42.620;25.394;2023-05-10T03:08:40;5.33;;;4.10;;
52590;SDS011;38483;42.620;25.394;2023-05-10T03:13:44;10.33;;;5.10;;
52590;SDS011;38483;42.620;25.394;2023-05-10T03:16:22;7.23;;;4.90;;
52590;SDS011;38483;42.620;25.394;2023-05-10T03:21:26;8.27;;;4.83;;
52590;SDS011;38483;42.620;25.394;2023-05-10T03:24:02;6.87;;;5.27;;
52590;SDS011;38483;42.620;25.394;2023-05-10T03:26:35;10.03;;;4.93;;
52590;SDS011;38483;42.620;25.394;2023-05-10T03:29:12;6.77;;;4.67;;
52590;SDS011;38483;42.620;25.394;2023-05-10T03:31:40;7.03;;;4.73;;
52590;SDS011;38483;42.620;25.394;2023-05-10T03:34:08;5.83;;;4.17;;
52590;SDS011;38483;42.620;25.394;2023-05-10T03:36:35;7.90;;;5.07;;
52590;SDS011;38483;42.620;25.394;2023-05-10T03:39:02;7.13;;;4.77;;
52590;SDS011;38483;42.620;25.394;2023-05-10T03:41:29;7.63;;;4.70;;
52590;SDS011;38483;42.620;25.394;2023-05-10T03:43:57;5.70;;;4.33;;
52590;SDS011;38483;42.620;25.394;2023-05-10T03:46:24;8.20;;;4.97;;
52590;SDS011;38483;42.620;25.394;2023-05-10T03:48:51;11.80;;;6.77;;
52590;SDS011;38483;42.620;25.394;2023-05-10T03:51:18;12.03;;;7.20;;
52590;SDS011;38483;42.620;25.394;2023-05-10T03:53:46;12.40;;;7.73;;
52590;SDS011;38483;42.620;25.394;2023-05-10T03:56:14;8.73;;;5.67;;
52590;SDS011;38483;42.620;25.394;2023-05-10T03:58:41;8.67;;;5.27;;
52590;SDS011;38483;42.620;25.394;2023-05-10T04:01:08;11.80;;;6.30;;
52590;SDS011;38483;42.620;25.394;2023-05-10T04:03:36;8.73;;;5.40;;
52590;SDS011;38483;42.620;25.394;2023-05-10T04:06:04;6.13;;;4.77;;
52590;SDS011;38483;42.620;25.394;2023-05-10T04:08:32;10.37;;;4.10;;
52590;SDS011;38483;42.620;25.394;2023-05-10T04:11:11;9.30;;;5.00;;
52590;SDS011;38483;42.620;25.394;2023-05-10T04:13:39;8.17;;;5.10;;
52590;SDS011;38483;42.620;25.394;2023-05-10T04:16:06;8.70;;;4.90;;
52590;SDS011;38483;42.620;25.394;2023-05-10T04:18:35;8.03;;;4.70;;
52590;SDS011;38483;42.620;25.394;2023-05-10T04:21:03;6.73;;;4.97;;
52590;SDS011;38483;42.620;25.394;2023-05-10T04:23:30;7.20;;;4.73;;
52590;SDS011;38483;42.620;25.394;2023-05-10T04:26:00;6.77;;;5.27;;
52590;SDS011;38483;42.620;25.394;2023-05-10T04:28:28;7.97;;;4.97;;
52590;SDS011;38483;42.620;25.394;2023-05-10T04:31:02;12.43;;;6.20;;
52590;SDS011;38483;42.620;25.394;2023-05-10T04:33:32;15.23;;;7.47;;
52590;SDS011;38483;42.620;25.394;2023-05-10T04:36:00;15.73;;;6.93;;
52590;SDS011;38483;42.620;25.394;2023-05-10T04:38:27;13.87;;;5.60;;
52590;SDS011;38483;42.620;25.394;2023-05-10T04:41:03;12.03;;;6.40;;
52590;SDS011;38483;42.620;25.394;2023-05-10T04:43:31;11.63;;;5.03;;
52590;SDS011;38483;42.620;25.394;2023-05-10T04:45:58;10.27;;;6.03;;
52590;SDS011;38483;42.620;25.394;2023-05-10T04:48:26;17.03;;;8.93;;
52590;SDS011;38483;42.620;25.394;2023-05-10T04:50:53;15.53;;;6.10;;
52590;SDS011;38483;42.620;25.394;2023-05-10T04:53:20;16.33;;;7.07;;
52590;SDS011;38483;42.620;25.394;2023-05-10T04:55:48;13.10;;;6.07;;
52590;SDS011;38483;42.620;25.394;2023-05-10T04:58:15;19.97;;;5.93;;
52590;SDS011;38483;42.620;25.394;2023-05-10T05:00:42;16.57;;;6.30;;
52590;SDS011;38483;42.620;25.394;2023-05-10T05:03:09;12.57;;;6.07;;
52590;SDS011;38483;42.620;25.394;2023-05-10T05:05:36;15.17;;;6.60;;
52590;SDS011;38483;42.620;25.394;2023-05-10T05:08:04;12.17;;;6.43;;
52590;SDS011;38483;42.620;25.394;2023-05-10T05:10:31;11.67;;;5.07;;
52590;SDS011;38483;42.620;25.394;2023-05-10T05:12:58;11.27;;;5.40;;
52590;SDS011;38483;42.620;25.394;2023-05-10T05:15:26;11.23;;;5.87;;
52590;SDS011;38483;42.620;25.394;2023-05-10T05:17:54;6.43;;;5.13;;
52590;SDS011;38483;42.620;25.394;2023-05-10T05:20:21;7.73;;;4.87;;
52590;SDS011;38483;42.620;25.394;2023-05-10T05:22:48;9.63;;;4.57;;
52590;SDS011;38483;42.620;25.394;2023-05-10T05:25:17;12.47;;;5.83;;
52590;SDS011;38483;42.620;25.394;2023-05-10T05:27:45;12.17;;;5.00;;
52590;SDS011;38483;42.620;25.394;2023-05-10T05:30:12;7.23;;;5.20;;
52590;SDS011;38483;42.620;25.394;2023-05-10T05:32:40;8.83;;;5.90;;
52590;SDS011;38483;42.620;25.394;2023-05-10T05:35:07;13.60;;;5.03;;
52590;SDS011;38483;42.620;25.394;2023-05-10T05:37:34;8.43;;;4.63;;
52590;SDS011;38483;42.620;25.394;2023-05-10T05:40:03;11.80;;;5.10;;
52590;SDS011;38483;42.620;25.394;2023-05-10T05:42:32;13.83;;;6.47;;
52590;SDS011;38483;42.620;25.394;2023-05-10T05:44:59;15.23;;;7.33;;
52590;SDS011;38483;42.620;25.394;2023-05-10T05:47:33;9.50;;;5.57;;
52590;SDS011;38483;42.620;25.394;2023-05-10T05:50:00;21.33;;;6.53;;
52590;SDS011;38483;42.620;25.394;2023-05-10T05:52:30;12.03;;;6.20;;
52590;SDS011;38483;42.620;25.394;2023-05-10T05:54:59;13.20;;;5.90;;
52590;SDS011;38483;42.620;25.394;2023-05-10T05:57:27;15.67;;;5.73;;
52590;SDS011;38483;42.620;25.394;2023-05-10T05:59:54;9.53;;;5.63;;
52590;SDS011;38483;42.620;25.394;2023-05-10T06:02:21;17.93;;;7.37;;
52590;SDS011;38483;42.620;25.394;2023-05-10T06:04:49;11.73;;;6.63;;
52590;SDS011;38483;42.620;25.394;2023-05-10T06:07:16;12.60;;;6.20;;
52590;SDS011;38483;42.620;25.394;2023-05-10T06:09:46;10.27;;;6.03;;
52590;SDS011;38483;42.620;25.394;2023-05-10T06:12:13;6.73;;;5.30;;
52590;SDS011;38483;42.620;25.394;2023-05-10T06:14:40;12.17;;;5.63;;
52590;SDS011;38483;42.620;25.394;2023-05-10T06:17:07;6.57;;;5.77;;
52590;SDS011;38483;42.620;25.394;2023-05-10T06:19:34;14.40;;;6.57;;
52590;SDS011;38483;42.620;25.394;2023-05-10T06:22:03;9.83;;;6.40;;
52590;SDS011;38483;42.620;25.394;2023-05-10T06:24:30;14.27;;;9.27;;
52590;SDS011;38483;42.620;25.394;2023-05-10T06:26:57;19.03;;;9.60;;
52590;SDS011;38483;42.620;25.394;2023-05-10T06:29:27;12.43;;;7.57;;
52590;SDS011;38483;42.620;25.394;2023-05-10T06:31:55;13.03;;;8.80;;
52590;SDS011;38483;42.620;25.394;2023-05-10T06:34:22;31.73;;;14.90;;
52590;SDS011;38483;42.620;25.394;2023-05-10T06:36:49;12.10;;;6.83;;
52590;SDS011;38483;42.620;25.394;2023-05-10T06:39:16;14.17;;;6.37;;
52590;SDS011;38483;42.620;25.394;2023-05-10T06:41:43;7.20;;;4.77;;
52590;SDS011;38483;42.620;25.394;2023-05-10T06:44:11;9.43;;;5.60;;
52590;SDS011;38483;42.620;25.394;2023-05-10T06:46:38;11.37;;;6.40;;
52590;SDS011;38483;42.620;25.394;2023-05-10T06:49:05;6.27;;;4.70;;
52590;SDS011;38483;42.620;25.394;2023-05-10T06:51:32;10.43;;;6.57;;
52590;SDS011;38483;42.620;25.394;2023-05-10T06:53:59;11.00;;;6.23;;
52590;SDS011;38483;42.620;25.394;2023-05-10T06:56:29;5.73;;;4.20;;
52590;SDS011;38483;42.620;25.394;2023-05-10T06:58:59;14.17;;;6.30;;
52590;SDS011;38483;42.620;25.394;2023-05-10T07:01:26;5.63;;;4.30;;
52590;SDS011;38483;42.620;25.394;2023-05-10T07:03:53;18.23;;;6.13;;
52590;SDS011;38483;42.620;25.394;2023-05-10T07:06:20;10.57;;;5.67;;
52590;SDS011;38483;42.620;25.394;2023-05-10T07:09:02;7.77;;;4.97;;
52590;SDS011;38483;42.620;25.394;2023-05-10T07:11:33;5.77;;;4.50;;
52590;SDS011;38483;42.620;25.394;2023-05-10T07:14:00;8.77;;;4.70;;
52590;SDS011;38483;42.620;25.394;2023-05-10T07:16:34;12.90;;;4.50;;
52590;SDS011;38483;42.620;25.394;2023-05-10T07:19:01;7.60;;;3.40;;
52590;SDS011;38483;42.620;25.394;2023-05-10T07:21:31;5.37;;;4.60;;
52590;SDS011;38483;42.620;25.394;2023-05-10T07:24:35;7.10;;;4.20;;
52590;SDS011;38483;42.620;25.394;2023-05-10T07:27:30;6.07;;;4.47;;
52590;SDS011;38483;42.620;25.394;2023-05-10T07:29:58;7.37;;;4.40;;
52590;SDS011;38483;42.620;25.394;2023-05-10T07:32:26;6.63;;;4.13;;
52590;SDS011;38483;42.620;25.394;2023-05-10T07:34:54;5.73;;;3.93;;
52590;SDS011;38483;42.620;25.394;2023-05-10T07:37:23;5.87;;;4.07;;
52590;SDS011;38483;42.620;25.394;2023-05-10T07:39:50;4.17;;;2.93;;
52590;SDS011;38483;42.620;25.394;2023-05-10T07:42:21;5.80;;;3.90;;
52590;SDS011;38483;42.620;25.394;2023-05-10T07:44:49;6.07;;;4.40;;
52590;SDS011;38483;42.620;25.394;2023-05-10T07:47:16;5.00;;;3.30;;
52590;SDS011;38483;42.620;25.394;2023-05-10T07:49:43;3.40;;;2.87;;
52590;SDS011;38483;42.620;25.394;2023-05-10T07:52:12;5.37;;;3.67;;
52590;SDS011;38483;42.620;25.394;2023-05-10T07:54:40;6.40;;;3.70;;
52590;SDS011;38483;42.620;25.394;2023-05-10T07:57:10;4.90;;;3.97;;
52590;SDS011;38483;42.620;25.394;2023-05-10T07:59:37;5.97;;;4.00;;
52590;SDS011;38483;42.620;25.394;2023-05-10T08:02:04;6.80;;;3.80;;
52590;SDS011;38483;42.620;25.394;2023-05-10T08:04:32;6.93;;;4.90;;
52590;SDS011;38483;42.620;25.394;2023-05-10T08:07:00;10.07;;;3.70;;
52590;SDS011;38483;42.620;25.394;2023-05-10T08:09:28;9.70;;;5.50;;
52590;SDS011;38483;42.620;25.394;2023-05-10T08:11:55;8.77;;;5.20;;
52590;SDS011;38483;42.620;25.394;2023-05-10T08:14:30;4.93;;;4.27;;
52590;SDS011;38483;42.620;25.394;2023-05-10T08:16:59;8.20;;;3.80;;
52590;SDS011;38483;42.620;25.394;2023-05-10T08:19:26;7.57;;;4.73;;
52590;SDS011;38483;42.620;25.394;2023-05-10T08:21:54;7.80;;;4.37;;
52590;SDS011;38483;42.620;25.394;2023-05-10T08:24:22;7.63;;;3.93;;
52590;SDS011;38483;42.620;25.394;2023-05-10T08:26:49;6.50;;;3.77;;
52590;SDS011;38483;42.620;25.394;2023-05-10T08:29:16;5.57;;;3.93;;
52590;SDS011;38483;42.620;25.394;2023-05-10T08:31:43;7.20;;;4.93;;
52590;SDS011;38483;42.620;25.394;2023-05-10T08:34:11;5.83;;;4.57;;
52590;SDS011;38483;42.620;25.394;2023-05-10T08:36:39;6.17;;;4.33;;
52590;SDS011;38483;42.620;25.394;2023-05-10T08:39:07;7.40;;;4.43;;
52590;SDS011;38483;42.620;25.394;2023-05-10T08:41:48;3.50;;;2.93;;
52590;SDS011;38483;42.620;25.394;2023-05-10T08:44:18;3.33;;;3.03;;
52590;SDS011;38483;42.620;25.394;2023-05-10T08:46:50;9.30;;;4.20;;
52590;SDS011;38483;42.620;25.394;2023-05-10T08:49:22;7.83;;;4.57;;
52590;SDS011;38483;42.620;25.394;2023-05-10T08:51:53;6.37;;;4.07;;
52590;SDS011;38483;42.620;25.394;2023-05-10T08:54:23;5.53;;;3.27;;
52590;SDS011;38483;42.620;25.394;2023-05-10T08:56:51;4.97;;;3.10;;
52590;SDS011;38483;42.620;25.394;2023-05-10T08:59:22;4.50;;;2.97;;
52590;SDS011;38483;42.620;25.394;2023-05-10T09:01:49;5.43;;;3.40;;
52590;SDS011;38483;42.620;25.394;2023-05-10T09:04:18;6.13;;;3.40;;
52590;SDS011;38483;42.620;25.394;2023-05-10T09:06:46;4.33;;;3.10;;
52590;SDS011;38483;42.620;25.394;2023-05-10T09:09:13;5.13;;;3.23;;
52590;SDS011;38483;42.620;25.394;2023-05-10T09:11:41;5.77;;;3.40;;
52590;SDS011;38483;42.620;25.394;2023-05-10T09:14:08;5.57;;;3.60;;
52590;SDS011;38483;42.620;25.394;2023-05-10T09:16:36;5.00;;;3.30;;
52590;SDS011;38483;42.620;25.394;2023-05-10T09:19:08;4.47;;;3.17;;
52590;SDS011;38483;42.620;25.394;2023-05-10T09:21:38;3.97;;;3.20;;
52590;SDS011;38483;42.620;25.394;2023-05-10T09:24:08;5.17;;;3.50;;
52590;SDS011;38483;42.620;25.394;2023-05-10T09:26:45;4.63;;;3.63;;
52590;SDS011;38483;42.620;25.394;2023-05-10T09:29:14;3.73;;;3.30;;
52590;SDS011;38483;42.620;25.394;2023-05-10T09:34:20;7.47;;;4.10;;
52590;SDS011;38483;42.620;25.394;2023-05-10T09:36:56;7.07;;;4.07;;
52590;SDS011;38483;42.620;25.394;2023-05-10T09:39:31;6.97;;;3.37;;
52590;SDS011;38483;42.620;25.394;2023-05-10T09:42:06;9.60;;;3.40;;
52590;SDS011;38483;42.620;25.394;2023-05-10T09:44:37;4.37;;;3.13;;
52590;SDS011;38483;42.620;25.394;2023-05-10T09:47:06;5.40;;;3.53;;
52590;SDS011;38483;42.620;25.394;2023-05-10T09:49:34;3.13;;;2.80;;
52590;SDS011;38483;42.620;25.394;2023-05-10T09:52:02;8.43;;;3.77;;
52590;SDS011;38483;42.620;25.394;2023-05-10T09:54:30;6.30;;;4.03;;
52590;SDS011;38483;42.620;25.394;2023-05-10T09:56:58;7.00;;;3.60;;
52590;SDS011;38483;42.620;25.394;2023-05-10T09:59:27;7.57;;;4.90;;
52590;SDS011;38483;42.620;25.394;2023-05-10T10:01:59;3.90;;;3.47;;
52590;SDS011;38483;42.620;25.394;2023-05-10T10:04:27;6.07;;;3.70;;
52590;SDS011;38483;42.620;25.394;2023-05-10T10:07:02;6.23;;;3.20;;
52590;SDS011;38483;42.620;25.394;2023-05-10T10:09:31;5.00;;;3.60;;
52590;SDS011;38483;42.620;25.394;2023-05-10T10:12:01;4.90;;;3.33;;
52590;SDS011;38483;42.620;25.394;2023-05-10T10:14:29;3.87;;;2.40;;
52590;SDS011;38483;42.620;25.394;2023-05-10T10:16:57;3.90;;;3.10;;
52590;SDS011;38483;42.620;25.394;2023-05-10T10:19:30;4.90;;;3.30;;
52590;SDS011;38483;42.620;25.394;2023-05-10T10:22:01;5.37;;;2.97;;
52590;SDS011;38483;42.620;25.394;2023-05-10T10:24:28;8.93;;;3.40;;
52590;SDS011;38483;42.620;25.394;2023-05-10T10:26:57;5.00;;;3.30;;
52590;SDS011;38483;42.620;25.394;2023-05-10T10:29:34;3.97;;;2.80;;
52590;SDS011;38483;42.620;25.394;2023-05-10T10:32:17;4.63;;;2.40;;
52590;SDS011;38483;42.620;25.394;2023-05-10T10:34:53;5.30;;;3.33;;
52590;SDS011;38483;42.620;25.394;2023-05-10T10:37:23;3.53;;;2.97;;
52590;SDS011;38483;42.620;25.394;2023-05-10T10:40:29;4.83;;;2.93;;
52590;SDS011;38483;42.620;25.394;2023-05-10T10:48:43;4.00;;;3.13;;
52590;SDS011;38483;42.620;25.394;2023-05-10T10:51:14;4.07;;;3.13;;
52590;SDS011;38483;42.620;25.394;2023-05-10T10:53:42;3.33;;;2.80;;
52590;SDS011;38483;42.620;25.394;2023-05-10T10:56:10;3.80;;;2.63;;
52590;SDS011;38483;42.620;25.394;2023-05-10T10:58:42;2.60;;;2.40;;
52590;SDS011;38483;42.620;25.394;2023-05-10T11:01:20;3.50;;;3.20;;
52590;SDS011;38483;42.620;25.394;2023-05-10T11:06:34;3.23;;;2.77;;
52590;SDS011;38483;42.620;25.394;2023-05-10T11:09:07;4.10;;;2.90;;
52590;SDS011;38483;42.620;25.394;2023-05-10T11:11:35;3.00;;;2.70;;
52590;SDS011;38483;42.620;25.394;2023-05-10T11:14:04;4.57;;;3.00;;
52590;SDS011;38483;42.620;25.394;2023-05-10T11:16:40;6.57;;;3.50;;
52590;SDS011;38483;42.620;25.394;2023-05-10T11:19:11;5.53;;;3.40;;
52590;SDS011;38483;42.620;25.394;2023-05-10T11:24:18;6.00;;;3.37;;
52590;SDS011;38483;42.620;25.394;2023-05-10T11:26:49;4.63;;;2.90;;
52590;SDS011;38483;42.620;25.394;2023-05-10T11:29:18;3.43;;;2.90;;
52590;SDS011;38483;42.620;25.394;2023-05-10T11:31:46;4.63;;;2.77;;
52590;SDS011;38483;42.620;25.394;2023-05-10T11:34:23;3.00;;;2.70;;
52590;SDS011;38483;42.620;25.394;2023-05-10T11:36:51;8.33;;;3.40;;
52590;SDS011;38483;42.620;25.394;2023-05-10T11:39:25;5.27;;;3.57;;
52590;SDS011;38483;42.620;25.394;2023-05-10T11:41:59;4.03;;;2.60;;
52590;SDS011;38483;42.620;25.394;2023-05-10T11:44:31;6.00;;;2.77;;
52590;SDS011;38483;42.620;25.394;2023-05-10T11:47:02;4.97;;;3.03;;
52590;SDS011;38483;42.620;25.394;2023-05-10T11:49:30;6.10;;;3.13;;
52590;SDS011;38483;42.620;25.394;2023-05-10T11:52:08;7.80;;;3.27;;
52590;SDS011;38483;42.620;25.394;2023-05-10T11:54:35;7.67;;;2.80;;
52590;SDS011;38483;42.620;25.394;2023-05-10T11:57:03;4.07;;;2.60;;
52590;SDS011;38483;42.620;25.394;2023-05-10T11:59:30;5.97;;;2.83;;
52590;SDS011;38483;42.620;25.394;2023-05-10T12:01:58;5.67;;;3.37;;
52590;SDS011;38483;42.620;25.394;2023-05-10T12:04:25;4.07;;;2.73;;
52590;SDS011;38483;42.620;25.394;2023-05-10T12:06:56;6.03;;;3.37;;
52590;SDS011;38483;42.620;25.394;2023-05-10T12:09:23;4.17;;;2.27;;
52590;SDS011;38483;42.620;25.394;2023-05-10T12:12:09;5.50;;;3.03;;
52590;SDS011;38483;42.620;25.394;2023-05-10T12:14:36;3.30;;;2.60;;
52590;SDS011;38483;42.620;25.394;2023-05-10T12:17:03;2.57;;;2.13;;
52590;SDS011;38483;42.620;25.394;2023-05-10T12:19:49;2.70;;;2.07;;
52590;SDS011;38483;42.620;25.394;2023-05-10T12:22:19;4.63;;;2.30;;
52590;SDS011;38483;42.620;25.394;2023-05-10T12:24:47;3.80;;;2.97;;
52590;SDS011;38483;42.620;25.394;2023-05-10T12:27:14;2.83;;;2.10;;
52590;SDS011;38483;42.620;25.394;2023-05-10T12:29:43;3.93;;;1.97;;
52590;SDS011;38483;42.620;25.394;2023-05-10T12:32:13;6.63;;;2.60;;
52590;SDS011;38483;42.620;25.394;2023-05-10T12:34:40;4.03;;;2.30;;
52590;SDS011;38483;42.620;25.394;2023-05-10T12:37:07;3.10;;;1.90;;
52590;SDS011;38483;42.620;25.394;2023-05-10T12:39:38;2.87;;;2.10;;
52590;SDS011;38483;42.620;25.394;2023-05-10T12:42:09;3.10;;;2.23;;
52590;SDS011;38483;42.620;25.394;2023-05-10T12:44:38;2.53;;;2.20;;
52590;SDS011;38483;42.620;25.394;2023-05-10T12:47:06;3.73;;;2.20;;
52590;SDS011;38483;42.620;25.394;2023-05-10T12:49:34;2.77;;;2.47;;
52590;SDS011;38483;42.620;25.394;2023-05-10T12:52:01;4.07;;;2.20;;
52590;SDS011;38483;42.620;25.394;2023-05-10T12:54:28;2.27;;;2.07;;
52590;SDS011;38483;42.620;25.394;2023-05-10T12:56:56;3.17;;;2.10;;
52590;SDS011;38483;42.620;25.394;2023-05-10T12:59:22;2.63;;;1.90;;
52590;SDS011;38483;42.620;25.394;2023-05-10T13:01:49;2.67;;;2.13;;
52590;SDS011;38483;42.620;25.394;2023-05-10T13:04:16;2.80;;;2.03;;
52590;SDS011;38483;42.620;25.394;2023-05-10T13:06:43;2.33;;;1.93;;
52590;SDS011;38483;42.620;25.394;2023-05-10T13:09:11;3.13;;;2.20;;
52590;SDS011;38483;42.620;25.394;2023-05-10T13:12:31;5.50;;;2.90;;
52590;SDS011;38483;42.620;25.394;2023-05-10T13:14:59;4.37;;;3.23;;
52590;SDS011;38483;42.620;25.394;2023-05-10T13:17:26;6.30;;;2.83;;
52590;SDS011;38483;42.620;25.394;2023-05-10T13:19:54;6.27;;;2.80;;
52590;SDS011;38483;42.620;25.394;2023-05-10T13:22:23;3.10;;;2.37;;
52590;SDS011;38483;42.620;25.394;2023-05-10T13:25:06;4.10;;;2.53;;
52590;SDS011;38483;42.620;25.394;2023-05-10T13:27:35;4.43;;;2.40;;
52590;SDS011;38483;42.620;25.394;2023-05-10T13:30:02;3.13;;;2.60;;
52590;SDS011;38483;42.620;25.394;2023-05-10T13:32:32;3.17;;;2.33;;
52590;SDS011;38483;42.620;25.394;2023-05-10T13:34:59;3.93;;;1.80;;
52590;SDS011;38483;42.620;25.394;2023-05-10T13:37:27;4.83;;;2.77;;
52590;SDS011;38483;42.620;25.394;2023-05-10T13:39:55;3.40;;;2.23;;
52590;SDS011;38483;42.620;25.394;2023-05-10T13:42:23;9.80;;;2.40;;
52590;SDS011;38483;42.620;25.394;2023-05-10T13:44:50;2.97;;;1.53;;
52590;SDS011;38483;42.620;25.394;2023-05-10T13:47:18;4.27;;;2.67;;
52590;SDS011;38483;42.620;25.394;2023-05-10T13:49:45;7.23;;;4.20;;
52590;SDS011;38483;42.620;25.394;2023-05-10T13:52:12;3.60;;;2.93;;
52590;SDS011;38483;42.620;25.394;2023-05-10T13:54:40;3.40;;;2.20;;
52590;SDS011;38483;42.620;25.394;2023-05-10T13:57:12;4.23;;;2.77;;
52590;SDS011;38483;42.620;25.394;2023-05-10T13:59:46;3.67;;;2.30;;
52590;SDS011;38483;42.620;25.394;2023-05-10T14:02:14;3.63;;;2.50;;
52590;SDS011;38483;42.620;25.394;2023-05-10T14:04:44;5.13;;;2.37;;
52590;SDS011;38483;42.620;25.394;2023-05-10T14:07:12;3.63;;;2.20;;
52590;SDS011;38483;42.620;25.394;2023-05-10T14:09:49;3.90;;;2.40;;
52590;SDS011;38483;42.620;25.394;2023-05-10T14:12:17;5.83;;;2.37;;
52590;SDS011;38483;42.620;25.394;2023-05-10T14:14:46;6.47;;;3.07;;
52590;SDS011;38483;42.620;25.394;2023-05-10T14:17:13;3.50;;;1.90;;
52590;SDS011;38483;42.620;25.394;2023-05-10T14:19:41;4.10;;;2.57;;
52590;SDS011;38483;42.620;25.394;2023-05-10T14:22:11;5.57;;;2.77;;
52590;SDS011;38483;42.620;25.394;2023-05-10T14:24:41;2.70;;;2.40;;
52590;SDS011;38483;42.620;25.394;2023-05-10T14:27:11;2.67;;;2.23;;
52590;SDS011;38483;42.620;25.394;2023-05-10T14:29:40;2.60;;;2.20;;
52590;SDS011;38483;42.620;25.394;2023-05-10T14:32:07;3.40;;;2.13;;
52590;SDS011;38483;42.620;25.394;2023-05-10T14:34:37;4.83;;;2.70;;
52590;SDS011;38483;42.620;25.394;2023-05-10T14:37:04;3.63;;;2.47;;
52590;SDS011;38483;42.620;25.394;2023-05-10T14:39:37;4.63;;;2.60;;
52590;SDS011;38483;42.620;25.394;2023-05-10T14:42:04;6.23;;;2.93;;
52590;SDS011;38483;42.620;25.394;2023-05-10T14:44:32;2.37;;;2.07;;
52590;SDS011;38483;42.620;25.394;2023-05-10T14:47:01;5.40;;;2.43;;
52590;SDS011;38483;42.620;25.394;2023-05-10T14:49:30;3.90;;;2.50;;
52590;SDS011;38483;42.620;25.394;2023-05-10T14:51:58;6.47;;;4.10;;
52590;SDS011;38483;42.620;25.394;2023-05-10T14:54:47;2.67;;;2.43;;
52590;SDS011;38483;42.620;25.394;2023-05-10T14:57:14;6.90;;;3.07;;
52590;SDS011;38483;42.620;25.394;2023-05-10T14:59:41;3.23;;;2.40;;
52590;SDS011;38483;42.620;25.394;2023-05-10T15:02:10;8.93;;;2.93;;
52590;SDS011;38483;42.620;25.394;2023-05-10T15:04:38;4.10;;;2.57;;
52590;SDS011;38483;42.620;25.394;2023-05-10T15:07:05;7.13;;;2.40;;
52590;SDS011;38483;42.620;25.394;2023-05-10T15:09:32;4.23;;;2.37;;
52590;SDS011;38483;42.620;25.394;2023-05-10T15:12:00;4.43;;;2.60;;
52590;SDS011;38483;42.620;25.394;2023-05-10T15:14:27;4.13;;;2.67;;
52590;SDS011;38483;42.620;25.394;2023-05-10T15:16:54;3.50;;;2.80;;
52590;SDS011;38483;42.620;25.394;2023-05-10T15:19:21;3.30;;;2.87;;
52590;SDS011;38483;42.620;25.394;2023-05-10T15:21:50;7.20;;;2.90;;
52590;SDS011;38483;42.620;25.394;2023-05-10T15:24:17;3.63;;;3.03;;
52590;SDS011;38483;42.620;25.394;2023-05-10T15:26:45;4.70;;;3.13;;